Time;durP1;ratioP1;P1;durP2;ratioP2;P2;SDS_P1;SDS_P2;PMS_P1;PMS_P2;Temp;Humidity;BMP_temperature;BMP_pressure;BME280_temperature;BME280_humidity;BME280_pressure;Samples;Min_cycle;Max_cycle;Signal;HPM_P1;HPM_P2
2022/05/21 00:00:31;;;;;;;7.60;3.30;;;;;;;12.02;82.58;100547.53;5053866;28;20032;-78
2022/05/21 00:02:57;;;;;;;7.75;3.00;;;;;;;12.02;83.05;100550.25;5053779;28;20463;-78
2022/05/21 00:05:24;;;;;;;8.95;2.75;;;;;;;12.02;83.37;100552.13;5054065;28;20086;-77
2022/05/21 00:07:51;;;;;;;6.68;2.95;;;;;;;12.03;83.53;100556.47;5053680;28;20044;-78
2022/05/21 00:10:18;;;;;;;9.90;3.72;;;;;;;12.02;83.50;100557.53;5054391;28;20032;-78
2022/05/21 00:12:44;;;;;;;10.27;3.40;;;;;;;11.83;84.30;100553.81;5054122;28;20053;-78
2022/05/21 00:15:11;;;;;;;8.05;3.45;;;;;;;11.91;84.19;100559.00;5053919;28;20041;-78
2022/05/21 00:17:37;;;;;;;6.90;3.30;;;;;;;11.89;84.40;100554.84;5053652;28;20091;-78
2022/05/21 00:20:03;;;;;;;8.50;3.95;;;;;;;11.89;83.96;100552.97;5055358;28;20125;-78
2022/05/21 00:22:29;;;;;;;6.78;3.20;;;;;;;11.87;84.35;100556.94;5055673;28;20064;-77
2022/05/21 00:24:54;;;;;;;8.00;4.03;;;;;;;11.82;84.77;100549.47;5055495;28;20436;-78
2022/05/21 00:27:20;;;;;;;8.73;3.93;;;;;;;11.81;84.82;100553.22;5055527;28;20099;-79
2022/05/21 00:29:45;;;;;;;8.15;3.63;;;;;;;11.62;85.61;100554.88;5055518;28;20718;-77
2022/05/21 00:32:11;;;;;;;10.50;3.95;;;;;;;11.67;84.99;100543.41;5055720;28;20071;-78
2022/05/21 00:34:36;;;;;;;8.85;3.33;;;;;;;11.59;85.16;100547.19;5054435;28;20056;-76
2022/05/21 00:37:02;;;;;;;9.88;3.67;;;;;;;11.73;85.10;100546.13;5053382;28;20033;-76
2022/05/21 00:39:28;;;;;;;8.73;3.50;;;;;;;11.64;84.93;100544.69;5053247;28;20124;-77
2022/05/21 00:41:54;;;;;;;7.75;3.42;;;;;;;11.62;85.77;100546.75;5035519;28;20533;-77
2022/05/21 00:44:20;;;;;;;9.82;3.97;;;;;;;11.65;85.25;100546.31;5053726;28;20036;-77
2022/05/21 00:46:47;;;;;;;8.15;3.67;;;;;;;11.70;85.38;100537.59;5053135;28;20388;-77
2022/05/21 00:49:19;;;;;;;8.90;4.32;;;;;;;11.61;85.21;100546.97;5036757;28;20040;-76
2022/05/21 00:51:56;;;;;;;8.27;3.85;;;;;;;11.67;84.79;100551.50;5057783;28;20063;-77
2022/05/21 00:54:26;;;;;;;9.85;4.18;;;;;;;11.58;85.72;100548.22;5057102;28;20491;-77
2022/05/21 00:56:57;;;;;;;12.68;3.95;;;;;;;11.56;85.73;100547.59;5057437;28;20021;-78
2022/05/21 01:02:09;;;;;;;7.15;3.33;;;;;;;11.61;85.23;100547.81;5058086;28;20043;-77
2022/05/21 01:04:36;;;;;;;9.13;3.88;;;;;;;11.54;86.06;100551.53;5057098;28;20119;-76
2022/05/21 01:07:03;;;;;;;7.47;3.53;;;;;;;11.56;85.54;100554.84;5057305;28;20091;-77
2022/05/21 01:09:29;;;;;;;7.53;3.42;;;;;;;11.49;85.72;100544.88;5057880;28;20025;-77
2022/05/21 01:11:56;;;;;;;7.75;3.97;;;;;;;11.45;85.95;100554.44;5058324;28;20059;-77
2022/05/21 01:14:22;;;;;;;10.07;3.78;;;;;;;11.47;85.79;100557.75;5057624;28;20049;-77
2022/05/21 01:16:50;;;;;;;8.70;3.63;;;;;;;11.47;85.86;100554.22;5056717;28;20052;-77
2022/05/21 01:19:15;;;;;;;7.72;3.10;;;;;;;11.47;85.85;100556.91;5038965;28;20033;-76
2022/05/21 01:21:41;;;;;;;7.00;3.08;;;;;;;11.52;85.96;100549.03;5056800;28;20093;-76
2022/05/21 01:24:08;;;;;;;8.05;3.08;;;;;;;11.50;85.65;100545.72;5057049;28;20040;-76
2022/05/21 01:26:34;;;;;;;12.45;3.45;;;;;;;11.42;86.27;100543.25;5056468;28;20104;-77
2022/05/21 01:29:03;;;;;;;5.57;2.65;;;;;;;11.52;85.49;100542.81;5056763;28;20373;-77
2022/05/21 01:31:30;;;;;;;7.82;3.00;;;;;;;11.52;85.58;100545.50;5038674;28;20597;-77
2022/05/21 01:33:55;;;;;;;5.82;2.70;;;;;;;11.44;85.93;100547.41;5056222;28;20486;-76
2022/05/21 01:36:20;;;;;;;5.60;2.53;;;;;;;11.40;85.78;100548.84;5038606;28;20029;-76
2022/05/21 01:38:46;;;;;;;8.57;3.10;;;;;;;11.51;85.98;100544.69;5038694;28;20808;-77
2022/05/21 01:41:12;;;;;;;6.60;2.83;;;;;;;11.52;85.13;100534.72;5056825;28;20021;-77
2022/05/21 01:46:22;;;;;;;7.03;2.63;;;;;;;11.42;85.37;100535.97;5056269;28;20044;-76
2022/05/21 01:48:47;;;;;;;6.40;2.38;;;;;;;11.46;85.91;100533.69;5056382;28;20037;-76
2022/05/21 01:51:13;;;;;;;5.95;2.03;;;;;;;11.45;86.02;100532.03;5038632;28;20072;-77
2022/05/21 01:53:40;;;;;;;5.30;2.13;;;;;;;11.42;86.25;100541.38;5056473;28;20467;-77
2022/05/21 01:56:08;;;;;;;5.57;1.95;;;;;;;11.52;85.41;100538.25;5056412;28;20458;-77
2022/05/21 01:58:33;;;;;;;6.10;2.67;;;;;;;11.56;85.26;100525.16;5056395;28;20041;-77
2022/05/21 02:00:59;;;;;;;6.70;2.47;;;;;;;11.61;84.47;100522.69;5056269;28;20098;-78
2022/05/21 02:03:25;;;;;;;6.18;2.50;;;;;;;11.59;84.96;100530.16;5055915;28;20475;-77
2022/05/21 02:05:53;;;;;;;4.38;2.03;;;;;;;11.53;85.34;100531.81;5056669;28;20082;-78
2022/05/21 02:08:19;;;;;;;7.55;1.92;;;;;;;11.50;84.92;100526.81;5056597;28;20060;-78
2022/05/21 02:10:45;;;;;;;8.10;2.53;;;;;;;11.50;84.87;100524.13;5056161;28;20471;-77
2022/05/21 02:13:17;;;;;;;7.22;2.08;;;;;;;11.55;84.96;100531.59;5056180;28;20036;-77
2022/05/21 02:15:43;;;;;;;4.78;2.03;;;;;;;11.56;84.29;100534.09;5056912;28;20446;-78
2022/05/21 02:18:08;;;;;;;6.43;1.83;;;;;;;11.53;84.18;100529.09;5056378;28;20357;-76
2022/05/21 02:20:34;;;;;;;11.95;4.25;;;;;;;11.61;84.50;100531.59;5057869;28;20036;-79
2022/05/21 02:22:59;;;;;;;5.40;2.23;;;;;;;11.64;84.32;100525.81;5064170;28;20048;-76
2022/05/21 02:25:24;;;;;;;;;;;;;;;11.65;84.16;100518.50;5063592;28;20035;-77
2022/05/21 02:27:49;;;;;;;5.83;2.27;;;;;;;11.63;84.03;100524.13;5061974;28;19924;-77
2022/05/21 02:30:15;;;;;;;5.22;2.22;;;;;;;11.59;84.45;100524.75;5059470;28;20083;-77
2022/05/21 02:32:40;;;;;;;4.18;1.70;;;;;;;11.64;84.25;100527.66;5055960;28;20088;-77
2022/05/21 02:35:06;;;;;;;5.37;2.03;;;;;;;11.67;84.18;100530.75;5037998;28;20037;-76
2022/05/21 02:40:15;;;;;;;4.80;1.70;;;;;;;11.69;83.90;100519.75;5055304;28;20120;-77
2022/05/21 02:42:43;;;;;;;4.57;1.93;;;;;;;11.67;84.06;100524.53;5055318;28;20033;-77
2022/05/21 02:45:11;;;;;;;6.07;2.15;;;;;;;11.69;83.66;100531.38;5055614;28;20294;-77
2022/05/21 02:47:37;;;;;;;4.95;1.77;;;;;;;11.72;83.74;100536.34;5055830;28;20032;-77
2022/05/21 02:50:03;;;;;;;6.63;1.90;;;;;;;11.66;83.96;100528.25;5055348;28;20112;-77
2022/05/21 02:52:28;;;;;;;7.13;1.83;;;;;;;11.62;84.30;100527.88;5055600;28;20037;-77
2022/05/21 02:54:54;;;;;;;11.18;2.40;;;;;;;11.64;84.34;100524.97;5054927;28;20029;-77
2022/05/21 02:57:19;;;;;;;5.00;1.40;;;;;;;11.64;84.41;100520.41;5055316;28;20053;-77
2022/05/21 02:59:48;;;;;;;3.57;1.37;;;;;;;11.62;83.93;100537.84;5055121;28;20111;-77
2022/05/21 03:02:14;;;;;;;5.22;2.15;;;;;;;11.61;84.32;100530.78;5055326;28;20028;-77
2022/05/21 03:04:39;;;;;;;3.33;1.70;;;;;;;11.66;83.50;100530.97;5054802;28;20037;-77
2022/05/21 03:07:04;;;;;;;5.37;1.53;;;;;;;11.70;83.76;100537.59;5037349;28;20119;-77
2022/05/21 03:12:14;;;;;;;8.27;2.63;;;;;;;11.65;84.04;100540.09;5057894;28;20306;-76
2022/05/21 03:14:39;;;;;;;7.80;2.40;;;;;;;11.64;84.42;100541.16;5055890;28;20036;-77
2022/05/21 03:17:05;;;;;;;4.70;1.93;;;;;;;11.66;83.54;100537.19;5054890;28;20112;-77
2022/05/21 03:19:33;;;;;;;5.32;2.80;;;;;;;11.63;84.25;100539.50;5055257;28;20289;-77
2022/05/21 03:22:00;;;;;;;6.60;2.25;;;;;;;11.73;83.96;100539.88;5055647;28;20059;-77
2022/05/21 03:24:26;;;;;;;6.38;1.73;;;;;;;11.76;83.46;100536.81;5054565;28;20096;-77
2022/05/21 03:26:52;;;;;;;5.38;2.08;;;;;;;11.84;83.31;100536.56;5055968;28;20071;-77
2022/05/21 03:29:18;;;;;;;;;;;;;;;11.75;83.54;100541.34;5056315;28;20457;-77
2022/05/21 03:31:43;;;;;;;4.80;2.17;;;;;;;11.75;83.98;100554.00;5037275;28;19915;-76
2022/05/21 03:34:09;;;;;;;9.37;2.20;;;;;;;11.75;83.64;100545.91;5055595;28;20053;-76
2022/05/21 03:36:34;;;;;;;6.95;2.03;;;;;;;11.75;83.65;100548.63;5054847;28;20104;-76
2022/05/21 03:39:00;;;;;;;5.38;2.97;;;;;;;11.68;83.80;100550.47;5036637;28;20123;-77
2022/05/21 03:41:26;;;;;;;8.38;3.03;;;;;;;11.63;84.50;100544.91;5054291;28;20079;-76
2022/05/21 03:43:52;;;;;;;6.20;2.17;;;;;;;11.71;84.09;100559.00;5054241;28;20036;-76
2022/05/21 03:46:18;;;;;;;7.78;2.63;;;;;;;11.72;84.01;100549.84;5036168;28;20028;-77
2022/05/21 03:48:44;;;;;;;6.38;2.63;;;;;;;11.66;84.64;100544.47;5036240;28;20032;-77
2022/05/21 03:51:10;;;;;;;4.65;2.25;;;;;;;11.76;84.26;100556.53;5053935;28;20059;-77
2022/05/21 03:53:35;;;;;;;;;;;;;;;11.75;84.39;100551.31;5054044;28;20033;-77
2022/05/21 03:56:00;;;;;;;6.55;2.40;;;;;;;11.75;83.95;100546.75;5054003;28;20058;-77
2022/05/21 03:58:26;;;;;;;7.53;2.83;;;;;;;11.77;84.36;100549.28;5053721;28;20021;-77
2022/05/21 04:00:51;;;;;;;6.07;2.75;;;;;;;11.77;84.15;100539.31;5053580;28;20040;-77
2022/05/21 04:03:17;;;;;;;8.98;2.75;;;;;;;11.82;83.84;100538.69;5053819;28;20036;-77
2022/05/21 04:05:42;;;;;;;6.72;2.97;;;;;;;11.80;83.98;100541.59;5036435;28;20536;-77
2022/05/21 04:08:08;;;;;;;;;;;;;;;11.78;84.05;100546.38;5054515;28;20083;-78
2022/05/21 04:10:33;;;;;;;8.33;3.10;;;;;;;11.79;84.00;100539.09;5054613;28;20000;-77
2022/05/21 04:12:58;;;;;;;8.55;2.88;;;;;;;11.77;84.27;100542.00;5053769;28;20255;-77
2022/05/21 04:15:25;;;;;;;11.07;3.47;;;;;;;11.81;83.83;100537.03;5053717;28;20521;-76
2022/05/21 04:17:51;;;;;;;7.57;3.50;;;;;;;11.71;84.38;100550.06;5035950;28;20021;-78
2022/05/21 04:20:17;;;;;;;5.72;2.25;;;;;;;11.73;84.60;100556.91;5053658;28;20029;-77
2022/05/21 04:22:43;;;;;;;8.35;3.63;;;;;;;11.87;83.69;100546.97;5053261;28;20040;-77
2022/05/21 04:25:10;;;;;;;7.80;2.90;;;;;;;11.82;83.96;100550.28;5035317;28;20356;-76
2022/05/21 04:27:39;;;;;;;10.98;3.40;;;;;;;11.80;84.26;100556.97;5035503;28;20040;-78
2022/05/21 04:30:06;;;;;;;5.70;2.72;;;;;;;11.82;84.63;100549.47;5054769;28;20021;-79
2022/05/21 04:32:31;;;;;;;11.13;4.10;;;;;;;11.87;83.82;100568.56;5054346;28;20032;-77
2022/05/21 04:34:57;;;;;;;8.20;3.10;;;;;;;11.90;84.18;100559.22;5053862;28;20540;-77
2022/05/21 04:37:22;;;;;;;8.13;2.90;;;;;;;11.86;84.44;100560.66;5035506;28;20017;-77
2022/05/21 04:39:47;;;;;;;7.28;3.28;;;;;;;11.79;84.30;100558.00;5053497;28;20041;-77
2022/05/21 04:42:13;;;;;;;9.57;3.23;;;;;;;11.80;84.17;100568.59;5052860;28;20033;-76
2022/05/21 04:44:39;;;;;;;13.47;4.60;;;;;;;11.78;84.71;100567.13;5053120;28;20287;-77
2022/05/21 04:47:04;;;;;;;6.97;3.20;;;;;;;11.80;84.71;100573.16;5053133;28;20143;-77
2022/05/21 04:49:30;;;;;;;8.25;3.22;;;;;;;11.87;84.01;100570.44;5053085;28;20041;-78
2022/05/21 04:51:55;;;;;;;9.18;4.00;;;;;;;11.90;83.17;100573.53;5053578;28;20075;-76
2022/05/21 04:54:21;;;;;;;;;;;;;;;11.89;83.63;100574.59;5053251;28;20037;-78
2022/05/21 04:56:46;;;;;;;8.43;3.45;;;;;;;11.86;84.28;100571.47;5054305;28;20393;-78
2022/05/21 04:59:12;;;;;;;10.70;3.20;;;;;;;11.90;83.75;100578.94;5054432;28;20043;-78
2022/05/21 05:01:39;;;;;;;11.02;3.00;;;;;;;11.88;84.00;100570.22;5054086;28;20029;-77
2022/05/21 05:04:06;;;;;;;7.10;3.55;;;;;;;11.94;83.45;100579.34;5036244;28;20029;-77
2022/05/21 05:06:32;;;;;;;7.95;2.97;;;;;;;11.87;84.26;100576.66;5053800;28;20033;-77
2022/05/21 05:08:57;;;;;;;6.55;3.25;;;;;;;11.97;83.28;100576.25;5054787;28;20490;-79
2022/05/21 05:11:23;;;;;;;7.30;3.08;;;;;;;11.98;83.20;100581.44;5055934;28;20035;-79
2022/05/21 05:13:49;;;;;;;7.45;3.08;;;;;;;12.10;82.43;100585.16;5037854;28;20029;-79
2022/05/21 05:16:14;;;;;;;7.53;2.92;;;;;;;12.06;82.59;100588.47;5055315;28;20490;-79
2022/05/21 05:18:39;;;;;;;7.47;2.90;;;;;;;12.06;82.56;100583.91;5054580;28;20025;-79
2022/05/21 05:21:05;;;;;;;;;;;;;;;12.03;82.79;100595.13;5055722;28;20032;-78
2022/05/21 05:23:30;;;;;;;8.63;2.42;;;;;;;12.01;82.99;100585.56;5036991;28;19916;-77
2022/05/21 05:25:59;;;;;;;5.45;2.40;;;;;;;12.06;82.73;100589.31;5052604;28;20424;-77
2022/05/21 05:28:25;;;;;;;7.72;2.10;;;;;;;12.05;82.88;100582.25;5034844;28;20025;-77
2022/05/21 05:30:51;;;;;;;8.65;3.10;;;;;;;12.07;82.41;100588.25;5052481;28;20399;-77
2022/05/21 05:33:17;;;;;;;5.45;2.15;;;;;;;11.96;82.93;100593.50;5052519;28;20098;-77
2022/05/21 05:35:43;;;;;;;6.53;2.58;;;;;;;11.94;83.29;100579.34;5054659;28;20037;-76
2022/05/21 05:38:09;;;;;;;;;;;;;;;11.95;82.75;100592.66;5056842;28;20103;-77
2022/05/21 05:40:35;;;;;;;6.10;2.30;;;;;;;11.98;82.55;100600.34;5056484;28;19951;-77
2022/05/21 05:43:02;;;;;;;4.18;2.17;;;;;;;12.10;82.53;100601.34;5056779;28;20097;-77
2022/05/21 05:45:28;;;;;;;5.72;2.00;;;;;;;11.97;82.67;100600.56;5056928;28;20029;-76
2022/05/21 05:47:54;;;;;;;7.40;2.20;;;;;;;11.99;82.53;100609.28;5056830;28;20043;-76
2022/05/21 05:50:19;;;;;;;6.67;2.50;;;;;;;12.01;82.51;100601.78;5056756;28;20127;-76
2022/05/21 05:52:45;;;;;;;;;;;;;;;11.99;82.60;100602.00;5057610;28;20531;-76
2022/05/21 05:55:10;;;;;;;8.10;2.30;;;;;;;12.01;82.86;100609.88;5039278;28;19908;-76
2022/05/21 05:57:35;;;;;;;;;;;;;;;12.03;82.36;100608.63;5057509;28;20468;-76
2022/05/21 06:00:01;;;;;;;5.45;1.90;;;;;;;12.09;82.28;100613.19;5039282;28;19962;-76
2022/05/21 06:05:22;;;;;;;6.40;2.47;;;;;;;12.09;82.65;100605.09;5057205;28;20071;-75
2022/05/21 06:07:53;;;;;;;8.18;2.65;;;;;;;12.19;82.69;100604.66;5040898;28;20079;-75
2022/05/21 06:10:28;;;;;;;6.63;2.50;;;;;;;12.26;82.25;100612.75;5059035;28;20047;-74
2022/05/21 06:12:54;;;;;;;7.85;3.15;;;;;;;12.36;80.93;100616.66;5058319;28;20029;-74
2022/05/21 06:15:19;;;;;;;5.75;2.88;;;;;;;12.36;81.47;100615.88;5057412;28;20114;-74
2022/05/21 06:17:45;;;;;;;5.55;2.92;;;;;;;12.37;81.57;100612.09;5055523;28;20025;-75
2022/05/21 06:20:14;;;;;;;5.45;2.65;;;;;;;12.40;81.17;100612.50;5055354;28;20036;-75
2022/05/21 06:22:40;;;;;;;9.55;2.78;;;;;;;12.45;81.15;100618.09;5055719;28;20037;-75
2022/05/21 06:25:06;;;;;;;5.43;2.53;;;;;;;12.46;81.85;100616.25;5055427;28;20029;-75
2022/05/21 06:27:32;;;;;;;5.32;2.15;;;;;;;12.45;81.39;100615.41;5055481;28;20105;-75
2022/05/21 06:29:57;;;;;;;7.15;2.72;;;;;;;12.52;81.94;100610.00;5055806;28;20044;-75
2022/05/21 06:32:22;;;;;;;;;;;;;;;12.47;81.68;100618.72;5055833;28;20029;-75
2022/05/21 06:34:48;;;;;;;7.43;2.87;;;;;;;12.60;81.43;100622.41;5055552;28;19919;-75
2022/05/21 06:37:13;;;;;;;;;;;;;;;12.64;80.75;100610.97;5037909;28;20124;-75
2022/05/21 06:39:40;;;;;;;8.05;2.78;;;;;;;12.64;81.00;100615.56;5055146;28;19913;-75
2022/05/21 06:42:06;;;;;;;6.38;3.10;;;;;;;12.63;81.46;100619.28;5055591;28;20032;-75
2022/05/21 06:44:32;;;;;;;;;;;;;;;12.69;81.21;100629.28;5055066;28;20474;-75
2022/05/21 06:46:58;;;;;;;6.68;2.65;;;;;;;12.77;81.30;100627.13;5053919;28;19912;-75
2022/05/21 06:49:26;;;;;;;;;;;;;;;12.89;80.76;100629.19;5055649;28;20032;-75
2022/05/21 06:51:53;;;;;;;5.57;2.78;;;;;;;12.90;80.53;100633.56;5054711;28;19913;-75
2022/05/21 06:54:19;;;;;;;6.70;2.88;;;;;;;12.86;79.67;100633.16;5054951;28;20033;-75
2022/05/21 06:56:44;;;;;;;6.35;2.55;;;;;;;12.75;80.25;100636.50;5054922;28;20036;-75
2022/05/21 06:59:09;;;;;;;9.85;2.75;;;;;;;12.77;79.84;100629.84;5054906;28;20037;-76
2022/05/21 07:01:35;;;;;;;6.17;2.63;;;;;;;12.71;80.49;100629.88;5054781;28;20448;-76
2022/05/21 07:04:00;;;;;;;7.75;3.53;;;;;;;12.76;80.88;100641.69;5054294;28;20334;-75
2022/05/21 07:09:09;;;;;;;5.65;2.50;;;;;;;12.77;80.55;100634.41;5054352;28;20036;-75
2022/05/21 07:11:37;;;;;;;6.63;2.70;;;;;;;12.71;80.64;100636.13;5054555;28;20029;-75
2022/05/21 07:14:03;;;;;;;5.22;2.20;;;;;;;12.83;79.87;100637.09;5054555;28;20268;-75
2022/05/21 07:16:28;;;;;;;;;;;;;;;12.68;80.54;100650.06;5054591;28;20029;-75
2022/05/21 07:18:54;;;;;;;5.27;2.47;;;;;;;12.62;81.12;100650.91;5054507;28;19908;-75
2022/05/21 07:21:19;;;;;;;5.97;2.60;;;;;;;12.77;80.77;100651.47;5054281;28;20275;-75
2022/05/21 07:23:46;;;;;;;6.88;3.10;;;;;;;12.88;79.77;100654.56;5054107;28;20527;-75
2022/05/21 07:26:13;;;;;;;6.90;2.55;;;;;;;12.81;80.39;100654.59;5054236;28;20025;-75
2022/05/21 07:28:38;;;;;;;7.63;2.33;;;;;;;12.87;80.58;100661.84;5053845;28;20033;-74
2022/05/21 07:31:04;;;;;;;4.40;2.60;;;;;;;12.85;79.79;100664.78;5054218;28;20436;-74
2022/05/21 07:33:30;;;;;;;9.98;3.17;;;;;;;13.06;79.66;100665.53;5054186;28;20053;-75
2022/05/21 07:35:56;;;;;;;13.88;3.97;;;;;;;13.05;79.03;100670.09;5054060;28;20086;-74
2022/05/21 07:38:21;;;;;;;;;;;;;;;12.95;79.98;100668.88;5054108;28;20037;-75
2022/05/21 07:40:47;;;;;;;4.88;3.00;;;;;;;13.03;80.31;100663.25;5053640;28;19909;-75
2022/05/21 07:43:37;;;;;;;9.32;3.47;;;;;;;13.03;79.89;100666.78;5036624;28;20441;-75
2022/05/21 07:46:02;;;;;;;5.05;2.22;;;;;;;13.06;79.49;100669.06;5054160;28;20086;-75
2022/05/21 07:48:28;;;;;;;4.80;1.98;;;;;;;13.10;79.23;100669.44;5053738;28;20037;-76
2022/05/21 07:51:00;;;;;;;8.18;2.90;;;;;;;13.13;78.45;100666.31;5036268;28;20122;-76
2022/05/21 07:53:29;;;;;;;9.88;2.33;;;;;;;13.27;79.33;100667.91;5053819;28;20037;-75
2022/05/21 07:55:55;;;;;;;6.70;2.70;;;;;;;13.29;78.78;100681.25;5053401;28;20037;-75
2022/05/21 07:58:23;;;;;;;6.72;2.72;;;;;;;13.18;78.29;100685.47;5053497;28;20438;-75
2022/05/21 08:00:55;;;;;;;7.03;2.97;;;;;;;13.22;77.92;100685.88;5053951;28;20029;-74
2022/05/21 08:03:22;;;;;;;10.10;3.45;;;;;;;13.24;78.96;100684.63;5055701;28;20033;-76
2022/05/21 08:05:47;;;;;;;10.73;2.55;;;;;;;13.38;77.95;100694.31;5053881;28;20367;-75
2022/05/21 08:08:13;;;;;;;7.65;3.20;;;;;;;13.38;77.56;100688.91;5036016;28;20028;-75
2022/05/21 08:10:41;;;;;;;5.40;2.35;;;;;;;13.46;78.90;100704.03;5054301;28;20455;-75
2022/05/21 08:13:07;;;;;;;6.70;3.05;;;;;;;13.50;78.01;100695.28;5054369;28;20060;-75
2022/05/21 08:15:33;;;;;;;;;;;;;;;13.52;77.23;100701.31;5054005;28;20510;-75
2022/05/21 08:18:00;;;;;;;6.28;2.65;;;;;;;13.50;77.31;100700.69;5053703;28;19909;-75
2022/05/21 08:20:26;;;;;;;7.10;2.72;;;;;;;13.47;77.95;100705.72;5053580;28;20416;-75
2022/05/21 08:28:20;;;;;;;6.78;3.20;;;;;;;13.52;77.29;100708.59;5053199;28;20056;-75
2022/05/21 08:30:47;;;;;;;8.25;3.63;;;;;;;13.43;77.75;100712.63;5053176;28;20463;-75
2022/05/21 08:33:15;;;;;;;7.15;3.70;;;;;;;13.60;77.09;100712.94;5052765;28;20128;-75
2022/05/21 08:35:41;;;;;;;9.80;3.95;;;;;;;13.38;78.24;100713.25;5053026;28;20112;-75
2022/05/21 08:38:08;;;;;;;6.38;2.92;;;;;;;13.44;78.18;100716.97;5053033;28;20067;-75
2022/05/21 08:40:45;;;;;;;9.23;2.90;;;;;;;13.56;78.40;100715.25;5035183;28;20029;-75
2022/05/21 08:43:20;;;;;;;9.98;4.00;;;;;;;13.72;77.99;100719.31;5053114;28;20112;-75
2022/05/21 08:46:07;;;;;;;7.38;3.33;;;;;;;14.01;76.45;100723.28;5053184;28;20032;-75
2022/05/21 08:48:33;;;;;;;;;;;;;;;14.03;76.11;100713.03;5053508;28;20029;-75
2022/05/21 08:51:04;;;;;;;10.18;3.58;;;;;;;14.15;75.65;100722.94;5053113;28;19915;-75
2022/05/21 08:53:31;;;;;;;6.82;3.05;;;;;;;14.29;75.28;100722.84;5052954;28;20072;-74
2022/05/21 08:56:01;;;;;;;6.82;3.25;;;;;;;14.05;75.99;100717.19;5035393;28;20036;-74
2022/05/21 08:58:42;;;;;;;7.63;3.00;;;;;;;14.22;75.36;100721.00;5052954;28;20036;-74
2022/05/21 09:01:12;;;;;;;7.85;3.17;;;;;;;14.27;74.82;100727.66;5052875;28;20056;-74
2022/05/21 09:03:38;;;;;;;8.30;3.15;;;;;;;14.14;75.82;100734.84;5052786;28;20043;-75
2022/05/21 09:06:03;;;;;;;8.93;3.85;;;;;;;13.58;76.54;100744.81;5052870;28;20021;-76
2022/05/21 09:08:36;;;;;;;;;;;;;;;13.83;75.33;100742.97;5053579;28;20028;-74
2022/05/21 09:11:11;;;;;;;8.27;3.10;;;;;;;13.83;76.31;100737.56;5055494;28;19912;-76
2022/05/21 09:13:47;;;;;;;7.45;3.45;;;;;;;13.92;74.51;100727.31;5056616;28;20024;-75
2022/05/21 09:19:00;;;;;;;8.10;3.22;;;;;;;14.05;75.40;100732.63;5042251;28;20071;-76
2022/05/21 09:21:27;;;;;;;7.45;3.13;;;;;;;14.28;75.02;100732.03;5057385;28;20456;-76
2022/05/21 09:23:54;;;;;;;7.07;3.45;;;;;;;14.25;73.85;100734.13;5057809;28;20059;-75
2022/05/21 09:26:26;;;;;;;8.50;3.47;;;;;;;14.54;71.61;100723.66;5039185;28;20426;-75
2022/05/21 09:28:52;;;;;;;8.70;2.90;;;;;;;14.58;71.93;100728.44;5057001;28;20025;-75
2022/05/21 09:31:31;;;;;;;13.43;3.78;;;;;;;14.42;72.26;100742.56;5057375;28;20090;-75
2022/05/21 09:34:30;;;;;;;7.20;3.50;;;;;;;14.57;71.86;100729.50;5038946;28;20041;-75
2022/05/21 09:37:02;;;;;;;11.27;3.53;;;;;;;14.54;71.98;100735.34;5056926;28;20459;-77
2022/05/21 09:39:41;;;;;;;8.32;3.35;;;;;;;14.14;72.56;100732.16;5056273;28;20041;-77
2022/05/21 09:45:27;;;;;;;9.02;3.22;;;;;;;14.81;70.91;100730.50;5056072;28;20616;-76
2022/05/21 09:48:15;;;;;;;16.80;4.68;;;;;;;14.56;71.25;100718.84;5038179;28;20029;-76
2022/05/21 09:50:59;;;;;;;7.38;3.05;;;;;;;14.67;70.96;100723.56;5055542;28;20029;-76
2022/05/21 09:53:36;;;;;;;12.95;3.95;;;;;;;14.79;70.96;100723.63;5037734;28;20033;-75
2022/05/21 09:56:09;;;;;;;8.23;2.58;;;;;;;15.13;69.44;100716.78;5037210;28;20455;-75
2022/05/21 09:58:50;;;;;;;;;;;;;;;;;;;;;
2022/05/21 10:01:35;;;;;;;8.75;3.95;;;;;;;15.26;68.19;100712.00;5055266;28;20054;-75
2022/05/21 10:04:30;;;;;;;6.93;2.80;;;;;;;15.41;68.40;100714.31;5054686;28;20033;-77
2022/05/21 10:07:03;;;;;;;6.43;2.65;;;;;;;15.58;68.16;100720.00;5036474;28;20065;-76
2022/05/21 10:12:30;;;;;;;6.57;3.15;;;;;;;15.89;65.83;100714.28;5055047;28;20044;-75
2022/05/21 10:15:05;;;;;;;8.52;3.25;;;;;;;16.14;64.42;100713.25;5055667;28;20360;-76
2022/05/21 10:17:39;;;;;;;7.55;3.22;;;;;;;16.23;64.89;100714.59;5055145;28;20121;-76
2022/05/21 10:20:26;;;;;;;5.85;2.80;;;;;;;16.24;64.07;100719.78;5037781;28;20502;-76
2022/05/21 10:23:46;;;;;;;13.23;3.95;;;;;;;16.40;63.77;100720.97;5054979;28;20116;-76
2022/05/21 10:26:29;;;;;;;7.55;3.22;;;;;;;16.45;63.17;100717.56;5005970;28;20033;-76
2022/05/21 10:29:27;;;;;;;6.38;3.20;;;;;;;16.42;61.88;100720.75;5054626;28;20032;-76
2022/05/21 10:35:17;;;;;;;10.80;3.17;;;;;;;15.84;64.72;100719.59;5131979;27;20387;-77
2022/05/21 10:38:20;;;;;;;8.80;3.15;;;;;;;16.15;64.58;100710.31;5133156;28;20089;-78
2022/05/21 10:40:54;;;;;;;8.93;2.95;;;;;;;16.36;63.73;100719.78;5028240;28;20088;-76
2022/05/21 10:43:45;;;;;;;8.10;3.50;;;;;;;16.52;63.42;100712.81;5117772;28;20043;-77
2022/05/21 10:46:46;;;;;;;7.10;3.30;;;;;;;16.81;61.45;100713.78;5132367;28;20027;-77
2022/05/21 10:49:30;;;;;;;6.30;2.97;;;;;;;16.71;60.55;100713.53;5131729;28;20030;-77
2022/05/21 10:52:21;;;;;;;7.68;3.25;;;;;;;16.64;60.23;100703.63;5132291;28;20051;-75
2022/05/21 10:54:53;;;;;;;6.28;2.83;;;;;;;16.71;60.72;100708.09;5131549;28;20023;-76
2022/05/21 10:57:37;;;;;;;6.25;2.83;;;;;;;16.65;60.45;100699.84;5131770;28;20039;-75
2022/05/21 11:00:27;;;;;;;6.25;2.90;;;;;;;16.59;60.90;100706.19;5131673;28;20027;-75
2022/05/21 11:03:21;;;;;;;8.30;3.42;;;;;;;16.45;61.46;100712.13;5132117;28;20027;-75
2022/05/21 11:05:55;;;;;;;7.60;2.70;;;;;;;16.38;62.14;100712.22;5131908;28;20028;-75
2022/05/21 11:08:57;;;;;;;10.13;3.35;;;;;;;16.25;62.98;100710.56;5131522;28;20412;-76
2022/05/21 11:11:48;;;;;;;7.22;2.72;;;;;;;16.07;62.50;100713.38;5131763;28;20461;-76
2022/05/21 11:14:19;;;;;;;5.68;2.20;;;;;;;16.04;63.13;100713.84;5131593;28;20129;-76
2022/05/21 11:17:30;;;;;;;7.75;2.63;;;;;;;16.05;63.39;100706.53;5113151;28;20413;-77
2022/05/21 11:19:58;;;;;;;6.18;2.75;;;;;;;16.03;63.12;100711.34;5105909;28;20383;-76
2022/05/21 11:22:39;;;;;;;4.88;2.15;;;;;;;16.03;62.61;100714.91;5112804;28;20023;-76
2022/05/21 11:25:17;;;;;;;6.38;2.70;;;;;;;15.87;63.51;100713.69;5131062;28;20080;-77
2022/05/21 11:27:51;;;;;;;5.85;2.92;;;;;;;15.82;63.88;100702.69;5130953;28;20385;-76
2022/05/21 11:30:20;;;;;;;7.60;2.65;;;;;;;15.86;64.01;100701.16;5131153;28;20023;-76
2022/05/21 11:38:42;;;;;;;9.43;3.15;;;;;;;16.20;63.22;100702.28;5130531;28;20080;-76
2022/05/21 11:41:30;;;;;;;8.38;2.55;;;;;;;16.45;62.04;100710.22;5130427;28;20331;-76
2022/05/21 11:46:46;;;;;;;6.40;2.13;;;;;;;16.25;61.01;100712.47;5116629;28;20042;-76
2022/05/21 11:49:27;;;;;;;6.38;2.78;;;;;;;16.04;61.40;100713.84;5117879;28;20063;-74
2022/05/21 11:51:54;;;;;;;5.97;2.30;;;;;;;15.92;61.35;100702.13;5116245;28;20032;-74
2022/05/21 11:54:47;;;;;;;3.97;2.08;;;;;;;15.86;62.35;100713.91;5098146;28;20373;-74
2022/05/21 11:57:30;;;;;;;9.38;3.22;;;;;;;15.90;62.25;100717.84;5116501;28;20024;-74
2022/05/21 11:59:56;;;;;;;5.68;2.55;;;;;;;15.96;61.52;100725.88;5116519;28;20035;-74
2022/05/21 12:02:29;;;;;;;;;;;;;;;15.96;61.75;100723.16;5116701;28;20032;-74
2022/05/21 12:04:58;;;;;;;4.88;2.42;;;;;;;16.09;61.13;100726.75;5116298;28;19915;-75
2022/05/21 12:07:46;;;;;;;6.80;2.35;;;;;;;16.51;60.66;100725.59;5116503;28;20505;-74
2022/05/21 12:10:18;;;;;;;6.75;2.42;;;;;;;16.76;59.91;100717.22;5116187;28;20054;-74
2022/05/21 12:13:42;;;;;;;4.53;2.15;;;;;;;16.96;59.17;100712.22;5116122;28;20046;-74
2022/05/21 12:16:16;;;;;;;8.65;2.95;;;;;;;17.05;58.83;100709.94;5012907;28;20473;-74
2022/05/21 12:18:46;;;;;;;5.30;2.45;;;;;;;16.88;58.94;100712.56;5013357;28;20504;-73
2022/05/21 12:21:30;;;;;;;5.65;2.15;;;;;;;16.90;59.40;100723.22;5084172;28;20142;-74
2022/05/21 12:23:58;;;;;;;4.78;2.75;;;;;;;16.91;58.83;100714.81;5115845;28;20062;-74